Time;durP1;ratioP1;P1;durP2;ratioP2;P2;SDS_P1;SDS_P2;PMS_P1;PMS_P2;Temp;Humidity;BMP_temperature;BMP_pressure;BME280_temperature;BME280_humidity;BME280_pressure;Samples;Min_cycle;Max_cycle;Signal;HPM_P1;HPM_P2
2022/07/31 00:00:31;;;;;;;3.92;3.55;;;14.50;99.90;;;;;;6121022;23;20026;-79
2022/07/31 00:02:58;;;;;;;3.42;2.78;;;14.40;99.90;;;;;;6126852;23;20410;-79
2022/07/31 00:05:26;;;;;;;13.32;4.93;;;14.40;99.90;;;;;;6129843;23;20018;-79
2022/07/31 00:07:54;;;;;;;4.90;3.55;;;14.40;99.90;;;;;;6119439;23;20343;-78
2022/07/31 00:10:22;;;;;;;3.58;3.28;;;14.40;99.90;;;;;;6129355;23;20018;-78
2022/07/31 00:12:50;;;;;;;2.75;2.63;;;14.40;99.90;;;;;;6119361;23;20363;-79
2022/07/31 00:15:18;;;;;;;2.97;2.80;;;14.40;99.90;;;;;;6125353;23;20482;-79
2022/07/31 00:17:46;;;;;;;4.35;2.83;;;14.40;99.90;;;;;;6129263;23;20076;-79
2022/07/31 00:20:16;;;;;;;3.35;3.05;;;14.40;99.90;;;;;;6121537;23;20381;-79
2022/07/31 00:22:45;;;;;;;3.55;3.00;;;14.50;99.90;;;;;;6127427;23;20025;-79
2022/07/31 00:25:14;;;;;;;3.22;3.03;;;14.40;99.90;;;;;;6129729;23;20025;-79
2022/07/31 00:27:42;;;;;;;3.45;3.25;;;14.40;99.90;;;;;;6126014;23;20029;-79
2022/07/31 00:30:15;;;;;;;3.42;3.15;;;14.40;99.90;;;;;;6130613;23;20049;-79
2022/07/31 00:32:44;;;;;;;3.38;3.15;;;14.40;99.90;;;;;;6122094;23;20052;-79
2022/07/31 00:35:15;;;;;;;3.25;3.05;;;14.40;99.90;;;;;;6127666;23;20461;-78
2022/07/31 00:37:43;;;;;;;4.15;3.63;;;14.30;99.90;;;;;;6130686;23;20014;-79
2022/07/31 00:40:14;;;;;;;8.02;3.63;;;14.30;99.90;;;;;;6123425;23;20034;-78
2022/07/31 00:42:42;;;;;;;3.55;3.25;;;14.30;99.90;;;;;;6129417;23;20025;-78
2022/07/31 00:45:10;;;;;;;7.30;3.03;;;14.30;99.90;;;;;;6131114;23;20480;-79
2022/07/31 00:47:40;;;;;;;3.75;3.38;;;14.30;99.90;;;;;;6099416;23;20025;-79
2022/07/31 00:50:09;;;;;;;4.07;3.80;;;14.30;99.90;;;;;;6131090;23;20025;-79
2022/07/31 00:52:37;;;;;;;3.50;3.20;;;14.20;99.90;;;;;;6093823;23;20029;-78
2022/07/31 00:55:05;;;;;;;6.30;3.08;;;14.10;99.90;;;;;;6101900;23;20018;-78
2022/07/31 00:57:33;;;;;;;4.25;3.85;;;14.10;99.90;;;;;;6131122;23;20021;-79
2022/07/31 01:00:01;;;;;;;3.25;2.95;;;14.00;99.90;;;;;;6094437;23;20473;-78
2022/07/31 01:02:32;;;;;;;3.17;2.97;;;14.00;99.90;;;;;;6094803;23;20028;-79
2022/07/31 01:05:06;;;;;;;3.35;3.10;;;14.00;99.90;;;;;;6130872;23;20025;-79
2022/07/31 01:07:34;;;;;;;2.63;2.53;;;13.90;99.90;;;;;;6120624;23;20022;-78
2022/07/31 01:10:06;;;;;;;3.35;3.05;;;13.90;99.90;;;;;;6094864;23;20022;-79
2022/07/31 01:12:59;;;;;;;3.50;3.30;;;13.80;99.90;;;;;;6095647;23;20026;-78
2022/07/31 01:15:27;;;;;;;3.58;3.28;;;13.70;99.90;;;;;;6126416;23;20022;-78
2022/07/31 01:17:57;;;;;;;3.42;3.13;;;13.70;99.90;;;;;;6130076;23;20452;-78
2022/07/31 01:20:26;;;;;;;4.88;4.38;;;13.70;99.90;;;;;;6096912;23;20603;-78
2022/07/31 01:22:57;;;;;;;3.47;3.03;;;13.70;99.90;;;;;;6102515;23;20025;-78
2022/07/31 01:25:46;;;;;;;4.57;3.28;;;13.70;99.90;;;;;;6105500;23;20026;-78
2022/07/31 01:29:01;;;;;;;3.72;2.90;;;13.60;99.90;;;;;;6096250;23;20469;-78
2022/07/31 01:31:43;;;;;;;3.92;3.35;;;13.50;99.90;;;;;;6125598;23;20021;-78
2022/07/31 01:34:36;;;;;;;4.07;3.78;;;13.50;99.90;;;;;;6105219;23;20022;-78
2022/07/31 01:37:11;;;;;;;4.25;3.85;;;13.40;99.90;;;;;;6124782;23;20500;-78
2022/07/31 01:39:41;;;;;;;;;;;13.50;99.90;;;;;;6124735;23;20026;-78
2022/07/31 01:42:12;;;;;;;6.20;4.07;;;13.50;99.90;;;;;;6104359;23;19920;-79
2022/07/31 01:44:43;;;;;;;3.67;3.38;;;13.50;99.90;;;;;;6120505;23;20037;-78
2022/07/31 01:47:15;;;;;;;4.10;3.70;;;13.50;99.90;;;;;;6100922;23;20350;-78
2022/07/31 01:49:44;;;;;;;3.50;3.22;;;13.50;99.90;;;;;;6104140;23;20025;-78
2022/07/31 01:52:14;;;;;;;3.20;3.00;;;13.40;99.90;;;;;;6095944;23;20049;-78
2022/07/31 01:54:44;;;;;;;4.03;3.63;;;13.40;99.90;;;;;;6103522;23;20014;-78
2022/07/31 01:57:13;;;;;;;3.83;3.60;;;13.40;99.90;;;;;;6130462;23;20021;-78
2022/07/31 01:59:52;;;;;;;6.03;4.90;;;13.30;99.90;;;;;;6098144;23;20662;-78
2022/07/31 02:02:41;;;;;;;4.30;4.00;;;13.30;99.90;;;;;;6128412;23;20020;-78
2022/07/31 02:05:11;;;;;;;4.93;4.53;;;13.40;99.90;;;;;;6103979;23;20013;-78
2022/07/31 02:07:44;;;;;;;4.00;3.70;;;13.40;99.90;;;;;;6121609;23;20025;-78
2022/07/31 02:10:19;;;;;;;3.75;3.45;;;13.50;99.90;;;;;;6103520;23;20014;-78
2022/07/31 02:12:49;;;;;;;2.90;2.67;;;13.60;99.90;;;;;;6094443;23;20030;-78
2022/07/31 02:15:19;;;;;;;5.00;4.20;;;13.60;99.90;;;;;;6100222;23;20022;-78
2022/07/31 02:17:49;;;;;;;4.50;4.05;;;13.60;99.90;;;;;;6104550;23;20021;-78
2022/07/31 02:20:24;;;;;;;4.25;3.85;;;13.60;99.90;;;;;;6121826;23;20465;-78
2022/07/31 02:22:55;;;;;;;5.38;4.85;;;13.60;99.90;;;;;;6100845;23;20461;-78
2022/07/31 02:25:24;;;;;;;3.67;3.47;;;13.60;99.90;;;;;;6103771;23;20021;-78
2022/07/31 02:27:55;;;;;;;4.57;3.42;;;13.70;99.90;;;;;;6097705;23;20037;-78
2022/07/31 02:30:28;;;;;;;4.18;3.53;;;13.60;99.90;;;;;;6103128;23;20442;-78
2022/07/31 02:33:12;;;;;;;3.92;3.63;;;13.60;99.90;;;;;;6070118;23;20334;-78
2022/07/31 02:35:44;;;;;;;3.95;3.67;;;13.60;99.90;;;;;;6098277;23;20026;-78
2022/07/31 02:38:18;;;;;;;4.47;4.18;;;13.60;99.90;;;;;;6103187;23;20024;-78
2022/07/31 02:40:56;;;;;;;5.25;4.07;;;13.70;99.90;;;;;;6093571;23;20045;-78
2022/07/31 02:43:25;;;;;;;4.57;4.28;;;13.60;99.90;;;;;;6125192;23;20037;-78
2022/07/31 02:45:56;;;;;;;4.65;4.15;;;13.60;99.90;;;;;;6103376;23;20028;-78
2022/07/31 02:48:25;;;;;;;3.75;3.53;;;13.60;99.90;;;;;;6094023;23;20041;-78
2022/07/31 02:50:56;;;;;;;6.25;3.65;;;13.60;99.90;;;;;;6125993;23;20033;-78
2022/07/31 02:53:24;;;;;;;5.57;5.07;;;13.70;99.90;;;;;;6129484;23;20540;-78
2022/07/31 02:55:55;;;;;;;;;;;13.60;99.90;;;;;;6070769;23;20481;-78
2022/07/31 02:58:22;;;;;;;6.75;4.15;;;13.70;99.90;;;;;;6103772;23;19921;-78
2022/07/31 03:01:02;;;;;;;4.25;3.85;;;13.70;99.90;;;;;;6093192;23;20029;-78
2022/07/31 03:03:31;;;;;;;;;;;13.70;99.90;;;;;;6099135;23;20174;-78
2022/07/31 03:05:59;;;;;;;3.75;3.50;;;13.80;99.90;;;;;;6102531;23;19920;-78
2022/07/31 03:08:27;;;;;;;4.40;4.00;;;13.80;99.90;;;;;;6094052;23;20022;-78
2022/07/31 03:10:58;;;;;;;3.40;3.15;;;13.80;99.90;;;;;;6100888;23;20461;-78
2022/07/31 03:13:29;;;;;;;9.80;5.05;;;13.80;99.90;;;;;;6103262;23;20017;-78
2022/07/31 03:15:58;;;;;;;4.85;4.40;;;13.80;99.90;;;;;;6073095;23;20034;-78
2022/07/31 03:18:28;;;;;;;4.78;4.45;;;13.80;99.90;;;;;;6102686;23;20018;-78
2022/07/31 03:20:56;;;;;;;4.30;3.95;;;13.80;99.90;;;;;;6130030;23;20017;-78
2022/07/31 03:23:26;;;;;;;5.30;4.85;;;13.80;99.90;;;;;;6068929;23;20044;-78
2022/07/31 03:26:02;;;;;;;4.15;3.85;;;13.80;99.90;;;;;;6103356;23;20017;-78
2022/07/31 03:28:29;;;;;;;5.32;4.00;;;13.80;99.90;;;;;;6094297;23;20033;-78
2022/07/31 03:30:57;;;;;;;4.85;4.45;;;13.80;99.90;;;;;;6100851;23;20029;-78
2022/07/31 03:33:28;;;;;;;3.10;2.90;;;13.80;99.90;;;;;;6103656;23;20018;-78
2022/07/31 03:35:56;;;;;;;4.72;3.30;;;13.80;99.90;;;;;;6097072;23;20508;-78
2022/07/31 03:38:26;;;;;;;3.92;3.63;;;13.80;99.90;;;;;;6101759;23;20025;-78
2022/07/31 03:41:18;;;;;;;4.10;3.88;;;13.80;99.90;;;;;;6069261;23;20440;-78
2022/07/31 03:43:47;;;;;;;6.75;3.72;;;13.80;99.90;;;;;;6123117;23;20036;-78
2022/07/31 03:46:20;;;;;;;4.70;4.30;;;13.80;99.90;;;;;;6103626;23;20014;-78
2022/07/31 03:48:50;;;;;;;5.13;4.65;;;13.70;99.90;;;;;;6092346;23;20026;-78
2022/07/31 03:51:20;;;;;;;4.55;4.15;;;13.70;99.90;;;;;;6098512;23;20053;-78
2022/07/31 03:53:48;;;;;;;4.55;4.25;;;13.70;99.90;;;;;;6102599;23;20325;-78
2022/07/31 03:56:36;;;;;;;8.48;4.93;;;13.70;99.90;;;;;;6092897;23;20049;-78
2022/07/31 03:59:04;;;;;;;5.47;4.95;;;13.70;99.90;;;;;;6099610;23;20037;-78
2022/07/31 04:01:34;;;;;;;5.10;3.80;;;13.80;99.90;;;;;;6102918;23;20018;-78
2022/07/31 04:04:35;;;;;;;3.97;3.67;;;13.80;99.90;;;;;;6093968;23;20026;-78
2022/07/31 04:07:04;;;;;;;4.57;4.18;;;13.80;99.90;;;;;;6097297;23;20022;-78
2022/07/31 04:09:32;;;;;;;4.43;4.13;;;13.90;99.90;;;;;;6103035;23;20481;-78
2022/07/31 04:12:02;;;;;;;5.35;4.20;;;13.90;99.90;;;;;;6096118;23;20615;-78
2022/07/31 04:14:30;;;;;;;5.30;4.22;;;13.90;99.90;;;;;;6102442;23;20025;-78
2022/07/31 04:17:02;;;;;;;8.02;4.25;;;13.90;99.90;;;;;;6102786;23;20014;-77
2022/07/31 04:19:41;;;;;;;4.35;3.47;;;14.00;99.90;;;;;;6068458;23;20030;-77
2022/07/31 04:22:08;;;;;;;10.73;4.97;;;14.00;99.90;;;;;;6102385;23;20023;-78
2022/07/31 04:24:37;;;;;;;5.18;3.90;;;14.00;99.90;;;;;;6093666;23;20032;-78
2022/07/31 04:27:05;;;;;;;4.50;4.10;;;14.00;99.90;;;;;;6125361;23;20030;-78
2022/07/31 04:29:45;;;;;;;4.53;4.15;;;14.00;99.90;;;;;;6101056;23;20022;-77
2022/07/31 04:32:14;;;;;;;3.58;3.38;;;14.10;99.90;;;;;;6094522;23;20022;-78
2022/07/31 04:34:59;;;;;;;5.97;4.97;;;14.10;99.90;;;;;;6100023;23;20018;-77
2022/07/31 04:37:27;;;;;;;4.20;3.90;;;14.10;99.90;;;;;;6101969;23;20020;-77
2022/07/31 04:39:58;;;;;;;4.15;3.72;;;14.10;99.90;;;;;;6095776;23;20458;-78
2022/07/31 04:42:26;;;;;;;5.13;4.43;;;14.00;99.90;;;;;;6127605;23;20025;-78
2022/07/31 04:44:59;;;;;;;3.97;3.20;;;14.00;99.90;;;;;;6102588;23;20017;-77
2022/07/31 04:47:27;;;;;;;4.68;4.20;;;14.10;99.90;;;;;;6097718;23;20055;-78
2022/07/31 04:49:55;;;;;;;4.32;4.00;;;14.10;99.90;;;;;;6102308;23;20017;-77
2022/07/31 04:52:22;;;;;;;4.65;4.35;;;14.20;99.90;;;;;;6119551;23;20464;-77
2022/07/31 04:54:50;;;;;;;4.15;3.85;;;14.20;99.90;;;;;;6100492;23;20026;-78
2022/07/31 04:57:18;;;;;;;4.00;3.70;;;14.20;99.90;;;;;;6128396;23;20014;-77
2022/07/31 04:59:49;;;;;;;3.53;3.33;;;14.30;99.90;;;;;;6121305;23;20033;-78
2022/07/31 05:02:26;;;;;;;4.95;3.85;;;14.40;99.90;;;;;;6101435;23;20024;-77
2022/07/31 05:04:54;;;;;;;4.00;3.67;;;14.50;99.90;;;;;;6128473;23;20462;-78
2022/07/31 05:07:27;;;;;;;3.78;3.47;;;14.50;99.90;;;;;;6094152;23;20026;-78
2022/07/31 05:09:57;;;;;;;3.72;3.42;;;14.60;99.90;;;;;;6091853;23;20025;-78
2022/07/31 05:12:25;;;;;;;4.45;4.05;;;14.60;99.90;;;;;;6095557;23;20026;-78
2022/07/31 05:14:54;;;;;;;3.63;3.33;;;14.70;99.90;;;;;;6102035;23;20040;-78
2022/07/31 05:17:22;;;;;;;4.40;4.00;;;14.70;99.90;;;;;;6095960;23;20373;-78
2022/07/31 05:20:08;;;;;;;6.85;3.92;;;14.80;99.90;;;;;;6100538;23;20369;-78
2022/07/31 05:23:12;;;;;;;4.95;4.55;;;14.90;99.90;;;;;;6087303;23;20022;-77
2022/07/31 05:25:52;;;;;;;4.40;4.00;;;14.90;99.90;;;;;;6090612;23;20025;-78
2022/07/31 05:28:20;;;;;;;5.15;4.30;;;14.90;99.90;;;;;;6092939;23;20029;-78
2022/07/31 05:30:57;;;;;;;4.53;4.20;;;15.00;99.90;;;;;;6093145;23;20032;-78
2022/07/31 05:33:27;;;;;;;4.68;3.47;;;15.10;99.90;;;;;;6103728;23;20806;-78
2022/07/31 05:35:56;;;;;;;7.32;4.47;;;15.20;99.90;;;;;;6073688;23;20025;-78
2022/07/31 05:38:24;;;;;;;4.22;3.90;;;15.40;99.90;;;;;;6093238;23;20022;-78
2022/07/31 05:41:28;;;;;;;6.13;4.22;;;15.50;99.90;;;;;;6126426;23;20030;-78
2022/07/31 05:43:59;;;;;;;5.80;3.63;;;15.60;99.90;;;;;;6123226;23;20026;-78
2022/07/31 05:46:32;;;;;;;3.65;3.35;;;15.70;99.90;;;;;;6102624;23;20014;-78
2022/07/31 05:49:00;;;;;;;6.40;4.78;;;15.70;99.90;;;;;;6103837;23;20014;-78
2022/07/31 05:51:29;;;;;;;4.22;3.80;;;15.70;99.90;;;;;;6093278;23;20017;-78
2022/07/31 05:53:57;;;;;;;4.43;4.03;;;15.70;99.90;;;;;;6093925;23;20357;-78
2022/07/31 05:56:43;;;;;;;3.95;3.72;;;15.90;99.90;;;;;;6119971;23;20030;-78
2022/07/31 05:59:12;;;;;;;3.63;3.25;;;16.10;99.90;;;;;;6099968;23;20028;-78
2022/07/31 06:01:40;;;;;;;4.80;4.40;;;16.20;99.90;;;;;;6079674;23;20326;-78
2022/07/31 06:04:08;;;;;;;4.28;3.28;;;16.30;99.90;;;;;;6096332;23;20412;-78
2022/07/31 06:06:40;;;;;;;5.72;4.30;;;16.30;99.90;;;;;;6069646;23;20022;-78
2022/07/31 06:09:08;;;;;;;5.70;4.43;;;16.40;99.90;;;;;;6103462;23;20488;-78
2022/07/31 06:11:39;;;;;;;5.55;5.05;;;16.40;99.90;;;;;;6098250;23;20048;-78
2022/07/31 06:14:08;;;;;;;3.95;3.70;;;16.50;99.90;;;;;;6129744;23;20014;-78
2022/07/31 06:17:08;;;;;;;4.97;4.57;;;16.60;99.90;;;;;;6103653;23;20030;-78
2022/07/31 06:19:38;;;;;;;4.88;4.57;;;16.70;99.90;;;;;;6098390;23;20313;-78
2022/07/31 06:22:05;;;;;;;8.02;4.78;;;16.80;99.90;;;;;;6093757;23;20230;-78
2022/07/31 06:24:34;;;;;;;3.72;3.42;;;16.80;99.90;;;;;;6094563;23;20026;-78
2022/07/31 06:27:05;;;;;;;4.47;4.15;;;16.90;99.90;;;;;;6126075;23;20034;-79
2022/07/31 06:29:58;;;;;;;4.07;3.67;;;16.90;99.90;;;;;;6129286;23;20735;-78
2022/07/31 06:32:26;;;;;;;4.70;4.30;;;16.90;99.90;;;;;;6094825;23;20022;-79
2022/07/31 06:34:54;;;;;;;5.10;3.65;;;17.00;99.90;;;;;;6101309;23;20690;-79
2022/07/31 06:37:22;;;;;;;5.20;4.63;;;17.10;99.90;;;;;;6068715;23;20025;-78
2022/07/31 06:39:51;;;;;;;4.40;3.67;;;17.20;99.90;;;;;;6096826;23;20030;-79
2022/07/31 06:42:43;;;;;;;3.72;3.42;;;17.30;99.90;;;;;;6119400;23;20018;-78
2022/07/31 06:45:14;;;;;;;3.90;3.00;;;17.40;99.90;;;;;;6129079;23;20041;-78
2022/07/31 06:48:24;;;;;;;4.00;3.22;;;17.50;99.90;;;;;;6119724;23;20030;-78
2022/07/31 06:51:02;;;;;;;3.22;2.95;;;17.70;99.90;;;;;;6100515;23;20036;-78
2022/07/31 06:53:51;;;;;;;3.58;3.38;;;17.80;99.90;;;;;;6103515;23;20025;-78
2022/07/31 06:56:19;;;;;;;3.95;3.50;;;18.00;99.90;;;;;;6094503;23;20354;-78
2022/07/31 06:58:47;;;;;;;2.70;2.50;;;18.00;99.90;;;;;;6125644;23;20025;-79
2022/07/31 07:01:15;;;;;;;2.80;2.60;;;18.10;99.90;;;;;;6129198;23;20017;-78
2022/07/31 07:03:43;;;;;;;2.90;2.63;;;18.20;99.90;;;;;;6097750;23;20021;-78
2022/07/31 07:06:11;;;;;;;5.22;3.22;;;18.30;99.90;;;;;;6069489;23;20572;-78
2022/07/31 07:08:38;;;;;;;2.85;2.65;;;18.40;99.90;;;;;;6118794;23;20029;-78
2022/07/31 07:11:07;;;;;;;2.72;2.53;;;18.50;99.90;;;;;;6099259;23;20018;-78
2022/07/31 07:13:40;;;;;;;2.83;2.63;;;18.60;99.90;;;;;;6129113;23;20017;-79
2022/07/31 07:16:16;;;;;;;9.50;3.90;;;18.60;99.90;;;;;;6094682;23;20034;-79
2022/07/31 07:18:44;;;;;;;2.70;2.50;;;18.60;99.90;;;;;;6069016;23;20454;-79
2022/07/31 07:21:12;;;;;;;2.78;2.58;;;18.70;99.90;;;;;;6103273;23;20014;-79
2022/07/31 07:23:41;;;;;;;8.95;5.13;;;18.70;99.90;;;;;;6097795;23;20022;-79
2022/07/31 07:26:32;;;;;;;2.35;2.15;;;18.70;99.90;;;;;;6118739;23;20018;-79
2022/07/31 07:29:01;;;;;;;3.53;3.33;;;18.80;99.90;;;;;;6093144;23;20018;-79
2022/07/31 07:31:30;;;;;;;5.13;2.80;;;18.80;99.90;;;;;;6097871;23;20018;-79
2022/07/31 07:34:04;;;;;;;2.85;2.65;;;18.90;99.90;;;;;;6092796;23;20018;-80
2022/07/31 07:36:32;;;;;;;3.65;3.28;;;18.90;99.90;;;;;;6094020;23;20454;-79
2022/07/31 07:39:03;;;;;;;;;;;19.00;99.90;;;;;;6101006;23;20025;-79
2022/07/31 07:41:33;;;;;;;3.45;3.20;;;19.00;99.90;;;;;;6103024;23;20256;-79
2022/07/31 07:44:02;;;;;;;3.15;2.95;;;19.00;99.90;;;;;;6095752;23;20353;-80
2022/07/31 07:46:30;;;;;;;3.70;2.42;;;19.10;99.90;;;;;;6101578;23;20014;-81
2022/07/31 07:49:03;;;;;;;3.03;2.83;;;19.20;99.90;;;;;;6081751;23;20018;-81
2022/07/31 07:51:54;;;;;;;3.85;2.90;;;19.20;99.90;;;;;;6097428;23;20046;-83
2022/07/31 07:54:32;;;;;;;3.45;3.08;;;19.30;99.90;;;;;;6094268;23;20022;-80
2022/07/31 07:57:20;;;;;;;2.45;2.35;;;19.30;99.90;;;;;;6093978;23;20022;-80
2022/07/31 08:00:18;;;;;;;4.03;2.75;;;19.40;99.90;;;;;;6073725;23;20029;-80
2022/07/31 08:02:59;;;;;;;8.95;3.25;;;19.40;99.90;;;;;;6100552;23;20018;-79
2022/07/31 08:05:48;;;;;;;3.10;2.85;;;19.40;99.90;;;;;;6103947;23;20014;-80
2022/07/31 08:08:15;;;;;;;2.95;2.75;;;19.50;99.90;;;;;;6092739;23;20033;-80
2022/07/31 08:10:46;;;;;;;2.75;2.55;;;19.60;99.90;;;;;;6126405;23;20033;-79
2022/07/31 08:13:21;;;;;;;3.65;3.30;;;19.60;99.90;;;;;;6104157;23;20018;-82
2022/07/31 08:16:07;;;;;;;4.07;3.05;;;19.60;99.90;;;;;;6123492;23;20025;-84
2022/07/31 08:18:45;;;;;;;4.40;2.63;;;19.70;99.90;;;;;;6105421;23;20567;-85
2022/07/31 08:21:12;;;;;;;2.85;2.65;;;19.70;99.90;;;;;;6070821;23;20025;-81
2022/07/31 08:23:41;;;;;;;5.53;2.92;;;19.90;99.90;;;;;;6098992;23;20026;-81
2022/07/31 08:26:09;;;;;;;21.33;3.53;;;19.90;99.90;;;;;;6105175;23;20018;-82
2022/07/31 08:28:41;;;;;;;3.80;2.92;;;19.90;99.90;;;;;;6095316;23;20429;-82
2022/07/31 08:31:22;;;;;;;4.38;3.97;;;20.00;99.90;;;;;;6100111;23;20641;-80
2022/07/31 08:34:14;;;;;;;6.07;2.55;;;20.10;99.90;;;;;;6116965;23;20029;-81
2022/07/31 08:37:07;;;;;;;2.38;2.20;;;20.20;99.90;;;;;;6078479;23;20657;-81
2022/07/31 08:39:56;;;;;;;3.83;3.53;;;20.30;99.90;;;;;;6098242;23;20690;-83
2022/07/31 08:42:25;;;;;;;2.90;2.58;;;20.40;99.90;;;;;;6071079;23;20051;-80
2022/07/31 08:44:53;;;;;;;3.10;2.80;;;20.40;99.90;;;;;;6094181;23;20053;-82
2022/07/31 08:47:27;;;;;;;3.90;2.80;;;20.50;99.90;;;;;;6102346;23;20025;-81
2022/07/31 08:50:00;;;;;;;3.60;2.80;;;20.50;99.90;;;;;;6106817;23;20025;-83
2022/07/31 08:52:31;;;;;;;3.92;3.63;;;20.60;99.90;;;;;;6071516;23;20025;-81
2022/07/31 08:55:07;;;;;;;3.55;3.30;;;20.50;99.90;;;;;;6104905;23;20030;-81
2022/07/31 08:57:35;;;;;;;4.25;3.95;;;20.60;99.90;;;;;;6106948;23;20014;-81
2022/07/31 09:00:06;;;;;;;2.58;2.38;;;20.80;99.90;;;;;;6098947;23;20022;-80
2022/07/31 09:02:34;;;;;;;3.42;3.22;;;20.90;99.90;;;;;;6129887;23;20020;-80
2022/07/31 09:05:31;;;;;;;4.22;3.83;;;21.00;99.90;;;;;;6087613;23;20018;-78
2022/07/31 09:08:10;;;;;;;5.78;2.47;;;21.10;99.90;;;;;;6070381;23;20033;-80
2022/07/31 09:10:44;;;;;;;2.55;2.35;;;21.10;99.90;;;;;;6071324;23;20017;-81
2022/07/31 09:13:18;;;;;;;3.20;2.65;;;21.20;99.90;;;;;;6105317;23;20021;-80
2022/07/31 09:15:47;;;;;;;2.97;2.78;;;21.30;99.90;;;;;;6098933;23;20021;-79
2022/07/31 09:18:23;;;;;;;3.17;2.85;;;21.30;99.90;;;;;;6103568;23;20753;-79
2022/07/31 09:21:06;;;;;;;2.88;2.67;;;21.50;99.90;;;;;;6067956;23;20033;-79
2022/07/31 09:23:45;;;;;;;3.20;2.97;;;21.60;99.90;;;;;;6098882;23;20037;-79
2022/07/31 09:26:14;;;;;;;2.58;2.40;;;21.70;99.90;;;;;;6100384;23;20017;-79
2022/07/31 09:28:44;;;;;;;3.00;2.80;;;21.90;99.90;;;;;;6093470;23;20033;-79
2022/07/31 09:31:13;;;;;;;4.83;4.43;;;21.90;99.90;;;;;;6099063;23;20030;-78
2022/07/31 09:33:57;;;;;;;6.22;3.30;;;22.20;99.90;;;;;;6069173;23;20393;-79
2022/07/31 09:36:36;;;;;;;3.13;2.83;;;22.40;99.90;;;;;;6094590;23;20045;-79
2022/07/31 09:39:25;;;;;;;4.10;2.53;;;22.40;99.90;;;;;;6093647;23;20018;-78
2022/07/31 09:42:21;;;;;;;4.03;2.25;;;22.20;99.90;;;;;;6116085;23;20029;-83
2022/07/31 09:45:03;;;;;;;4.18;2.38;;;22.20;99.90;;;;;;6100716;23;20488;-78
2022/07/31 09:47:33;;;;;;;3.03;2.75;;;22.20;99.90;;;;;;6044616;23;20544;-78
2022/07/31 09:50:05;;;;;;;;;;;22.40;99.90;;;;;;6103722;23;20024;-80
2022/07/31 09:52:38;;;;;;;2.63;2.25;;;22.50;99.90;;;;;;6121884;23;19925;-81
2022/07/31 09:55:14;;;;;;;3.38;2.10;;;22.80;99.90;;;;;;6101995;23;20366;-81
2022/07/31 09:57:56;;;;;;;1.75;1.65;;;22.80;99.90;;;;;;6104174;23;20022;-77
2022/07/31 10:01:13;;;;;;;2.47;2.28;;;22.70;99.90;;;;;;6094945;23;20029;-87
2022/07/31 10:09:03;;;;;;;1.90;1.80;;;22.50;99.90;;;;;;6175659;23;20021;-87
2022/07/31 10:11:59;;;;;;;2.90;2.03;;;22.50;99.90;;;;;;5986044;23;20410;-83
2022/07/31 10:14:57;;;;;;;3.55;2.63;;;22.50;99.90;;;;;;5995538;23;20030;-87
2022/07/31 10:18:29;;;;;;;1.63;1.52;;;22.50;99.90;;;;;;6129217;23;20028;-84
2022/07/31 10:21:46;;;;;;;2.28;2.08;;;22.50;99.90;;;;;;6099050;23;20029;-83
2022/07/31 10:25:05;;;;;;;;;;;;;;;;;;;;;
2022/07/31 10:28:06;;;;;;;2.97;2.40;;;22.50;99.90;;;;;;6153403;23;20471;-83
2022/07/31 10:44:57;;;;;;;4.18;2.33;;;23.80;99.90;;;;;;5904472;24;20093;-85
2022/07/31 10:48:10;;;;;;;3.50;2.55;;;23.60;99.90;;;;;;5967805;23;20023;-87
2022/07/31 10:51:03;;;;;;;3.67;2.47;;;23.50;99.90;;;;;;6015684;23;20368;-86
2022/07/31 10:54:47;;;;;;;3.03;1.83;;;23.20;99.90;;;;;;6035017;23;20034;-85
2022/07/31 10:58:23;;;;;;;2.42;2.15;;;23.00;99.40;;;;;;6008992;23;20581;-88
2022/07/31 11:12:31;;;;;;;2.88;2.63;;;23.50;99.90;;;;;;5905274;24;20032;-86
2022/07/31 11:15:38;;;;;;;2.95;1.80;;;23.30;99.10;;;;;;5930582;23;20023;-86
2022/07/31 11:19:08;;;;;;;2.95;2.08;;;23.40;99.00;;;;;;5985491;23;20024;-85
2022/07/31 11:21:56;;;;;;;6.90;2.22;;;23.80;97.30;;;;;;5960376;23;20039;-88
2022/07/31 11:30:05;;;;;;;1.42;1.33;;;24.10;98.10;;;;;;5995109;23;20020;-87
2022/07/31 11:32:52;;;;;;;2.00;1.90;;;24.30;95.20;;;;;;5959990;23;20035;-78
2022/07/31 11:35:38;;;;;;;2.20;1.83;;;24.00;96.90;;;;;;6034195;23;20028;-78
2022/07/31 11:38:06;;;;;;;2.58;1.40;;;23.80;97.80;;;;;;6104809;23;20025;-76
2022/07/31 11:40:34;;;;;;;1.85;1.75;;;23.50;96.30;;;;;;6145618;23;20026;-77
2022/07/31 11:43:07;;;;;;;1.80;1.70;;;23.40;97.50;;;;;;6154873;23;20036;-78
2022/07/31 11:45:53;;;;;;;1.77;1.67;;;23.40;97.00;;;;;;6157322;23;20013;-77
2022/07/31 11:48:24;;;;;;;1.67;1.58;;;24.00;97.70;;;;;;6123743;23;20557;-79
2022/07/31 11:50:54;;;;;;;1.85;1.75;;;24.50;96.50;;;;;;6155642;23;20022;-77
2022/07/31 11:53:23;;;;;;;4.35;2.80;;;24.60;94.80;;;;;;6157111;23;20017;-77
2022/07/31 11:55:54;;;;;;;1.63;1.52;;;24.70;96.30;;;;;;6152502;23;20025;-81
2022/07/31 11:58:25;;;;;;;1.50;1.40;;;24.60;94.70;;;;;;6159695;23;20021;-79
2022/07/31 12:00:53;;;;;;;2.80;1.48;;;24.30;95.50;;;;;;6148640;23;20026;-80
2022/07/31 12:03:29;;;;;;;1.67;1.58;;;24.30;97.10;;;;;;6129093;23;20017;-78
2022/07/31 12:05:59;;;;;;;1.25;1.17;;;24.40;96.10;;;;;;6159608;23;20017;-79
2022/07/31 12:08:28;;;;;;;2.08;1.75;;;24.60;96.30;;;;;;6097643;23;20021;-78
2022/07/31 12:10:59;;;;;;;3.00;1.92;;;24.60;94.40;;;;;;6172875;23;20021;-77
2022/07/31 12:13:28;;;;;;;1.67;1.42;;;24.90;98.00;;;;;;6163304;23;20013;-79
2022/07/31 12:16:07;;;;;;;3.63;1.88;;;24.80;95.10;;;;;;6157094;23;20021;-79
2022/07/31 12:18:49;;;;;;;4.00;2.00;;;24.60;94.40;;;;;;6187562;23;20028;-80
2022/07/31 12:21:17;;;;;;;6.20;1.75;;;24.40;93.70;;;;;;6164153;23;20020;-79
2022/07/31 12:23:51;;;;;;;4.05;2.97;;;24.30;95.40;;;;;;6184852;23;20029;-77
2022/07/31 12:26:30;;;;;;;1.42;1.33;;;24.30;95.90;;;;;;6162523;23;20479;-77
2022/07/31 12:29:07;;;;;;;1.98;1.40;;;24.30;97.60;;;;;;6152884;23;20357;-78
2022/07/31 12:31:50;;;;;;;2.65;2.00;;;24.40;94.80;;;;;;6184943;23;20036;-79
2022/07/31 12:34:41;;;;;;;4.53;1.77;;;24.60;95.20;;;;;;6154873;23;20364;-80
2022/07/31 12:37:15;;;;;;;16.60;1.73;;;24.60;93.90;;;;;;6162205;23;20036;-78
2022/07/31 12:39:46;;;;;;;1.77;1.65;;;24.60;94.40;;;;;;6185664;23;20025;-79
2022/07/31 12:42:30;;;;;;;1.70;1.60;;;24.40;95.10;;;;;;6154040;23;20036;-83
2022/07/31 12:45:23;;;;;;;4.18;1.70;;;24.30;93.50;;;;;;6164334;23;20329;-83
2022/07/31 12:47:53;;;;;;;2.28;1.40;;;24.30;94.40;;;;;;6185072;23;20025;-79
2022/07/31 12:50:22;;;;;;;1.95;1.85;;;24.20;96.40;;;;;;6162208;23;20024;-78
2022/07/31 12:52:51;;;;;;;2.15;1.83;;;24.30;95.30;;;;;;6176999;23;20021;-78
2022/07/31 12:55:18;;;;;;;2.10;1.95;;;24.20;95.10;;;;;;6184529;23;20330;-77
2022/07/31 12:57:46;;;;;;;2.85;1.75;;;24.20;97.50;;;;;;6188749;23;20341;-78
2022/07/31 13:00:23;;;;;;;1.50;1.40;;;24.10;95.70;;;;;;6180258;23;20353;-78
2022/07/31 13:02:52;;;;;;;2.28;2.17;;;24.30;99.10;;;;;;6187099;23;20032;-79
2022/07/31 13:05:21;;;;;;;2.65;2.20;;;24.50;99.10;;;;;;6190491;23;20013;-78
2022/07/31 13:07:49;;;;;;;3.08;1.83;;;24.60;98.40;;;;;;6184625;23;20526;-78
2022/07/31 13:10:17;;;;;;;1.73;1.63;;;24.70;96.40;;;;;;6184814;23;20017;-77
2022/07/31 13:12:53;;;;;;;3.88;1.73;;;24.80;96.00;;;;;;6178443;23;20032;-78
2022/07/31 13:15:28;;;;;;;1.42;1.33;;;24.90;94.30;;;;;;6184480;23;20566;-77
2022/07/31 13:17:58;;;;;;;1.23;1.20;;;25.10;94.60;;;;;;6188407;23;20020;-77
2022/07/31 13:20:26;;;;;;;2.37;1.37;;;25.10;95.90;;;;;;6153721;23;20031;-77
2022/07/31 13:22:54;;;;;;;11.05;1.77;;;25.60;95.60;;;;;;6185626;23;20028;-77
2022/07/31 13:25:22;;;;;;;2.22;1.65;;;25.70;92.90;;;;;;6151803;23;20017;-77
2022/07/31 13:27:50;;;;;;;2.65;1.45;;;25.40;93.20;;;;;;6182135;23;20191;-77
2022/07/31 13:30:17;;;;;;;3.65;1.42;;;25.20;92.00;;;;;;6189527;23;20562;-80
2022/07/31 13:32:45;;;;;;;2.45;1.60;;;25.10;91.70;;;;;;6153180;23;20032;-81
2022/07/31 13:35:13;;;;;;;6.13;1.75;;;25.00;91.20;;;;;;6129540;23;20025;-80
2022/07/31 13:37:55;;;;;;;3.78;1.95;;;24.90;92.10;;;;;;6142372;23;20028;-76
2022/07/31 13:43:11;;;;;;;11.13;2.55;;;24.80;92.20;;;;;;6150019;23;20048;-76
2022/07/31 13:45:38;;;;;;;1.35;1.25;;;24.80;92.00;;;;;;6187732;23;20024;-78
2022/07/31 13:48:06;;;;;;;2.42;1.23;;;25.10;93.70;;;;;;6179773;23;20025;-77
2022/07/31 13:50:40;;;;;;;7.28;2.33;;;25.40;93.40;;;;;;6186887;23;20024;-77
2022/07/31 13:53:08;;;;;;;2.95;2.10;;;25.20;92.80;;;;;;6188684;23;20024;-77
2022/07/31 13:55:36;;;;;;;3.08;2.08;;;25.00;94.20;;;;;;6183030;23;20028;-77
2022/07/31 13:58:05;;;;;;;1.80;1.70;;;24.90;94.00;;;;;;6186963;23;20017;-75
2022/07/31 14:00:33;;;;;;;5.35;2.20;;;24.90;93.50;;;;;;6150443;23;20552;-76
2022/07/31 14:03:01;;;;;;;1.88;1.77;;;24.90;94.90;;;;;;6184061;23;20025;-76
2022/07/31 14:05:29;;;;;;;4.15;2.08;;;25.10;95.70;;;;;;6187116;23;20664;-76
2022/07/31 14:08:05;;;;;;;6.10;2.55;;;25.70;93.70;;;;;;6179912;23;20021;-76